Peotone Weather
Station Historical Data
Daily Summary for February 13, 2018 Units:  Both    English   Metric
« Previous Day
Next Day »
Daily Weekly Monthly Yearly Custom
  High: Low: Average:
Temperature: 32.0 °F /  0 °C 10.8 °F /  -11.8 °C 21 °F /  -6.1 °C
Dew Point: 25.8 °F /  -3.4 °C 7.9 °F /  -13.4 °C 16.7 °F /  -8.5 °C
Humidity: 92% 68% 83%
Wind Speed: 14.9mph /  24km/h - 3.4mph /  5.5km/h
Wind Gust: 14.9mph /  24km/h - -
Wind- - East
Pressure: 30.78 in /  1042.2 hPa 30.29 in /  1025.6 hPa -
Precipitation: 0.00 in /  0 mm    
Historical Graphs
 
 
Tabular Data for February 13, 2018
Time Temperature Dew Point Pressure Wind Wind Speed Wind Gust Humidity Rainfall Rate (Hourly) solar Conditions
00:00 14.5 °F /  -9.7 °C 12.1 °F /  -11.1 °C 30.78in /  1042.2hPa ENE 3.5mph /  5.6km/h 8.1mph /  13km/h 90% 0.00in /  0mm 0.00 W/m2
00:03 14.5 °F /  -9.7 °C 12.1 °F /  -11.1 °C 30.78in /  1042.2hPa ENE 3.4mph /  5.5km/h 8.1mph /  13km/h 90% 0.00in /  0mm 0.00 W/m2
00:05 14.4 °F /  -9.8 °C 12.0 °F /  -11.1 °C 30.78in /  1042.2hPa Calm   8.1mph /  13km/h 90% 0.00in /  0mm 0.00 W/m2
00:08 14.5 °F /  -9.7 °C 12.1 °F /  -11.1 °C 30.78in /  1042.2hPa ENE 2.3mph /  3.7km/h 5.8mph /  9.3km/h 90% 0.00in /  0mm 0.00 W/m2
00:10 14.4 °F /  -9.8 °C 12.0 °F /  -11.1 °C 30.78in /  1042.2hPa ENE 3.5mph /  5.6km/h 5.8mph /  9.3km/h 90% 0.00in /  0mm 0.00 W/m2
00:13 14.3 °F /  -9.8 °C 11.9 °F /  -11.2 °C 30.78in /  1042.2hPa ENE 1.1mph /  1.8km/h 3.4mph /  5.5km/h 90% 0.00in /  0mm 0.00 W/m2
00:15 14.2 °F /  -9.9 °C 11.8 °F /  -11.2 °C 30.78in /  1042.2hPa ENE 1.1mph /  1.8km/h 5.8mph /  9.3km/h 90% 0.00in /  0mm 0.00 W/m2
00:18 14.0 °F /  -10 °C 11.6 °F /  -11.3 °C 30.78in /  1042.2hPa ENE 2.3mph /  3.7km/h 4.6mph /  7.4km/h 90% 0.00in /  0mm 0.00 W/m2
00:20 14.0 °F /  -10 °C 11.6 °F /  -11.3 °C 30.78in /  1042.2hPa ENE 1.1mph /  1.8km/h 4.6mph /  7.4km/h 90% 0.00in /  0mm 0.00 W/m2
00:23 14.0 °F /  -10 °C 11.6 °F /  -11.3 °C 30.78in /  1042.2hPa ENE 4.6mph /  7.4km/h 4.6mph /  7.4km/h 90% 0.00in /  0mm 0.00 W/m2
00:25 14.0 °F /  -10 °C 11.6 °F /  -11.3 °C 30.78in /  1042.2hPa ENE 3.5mph /  5.6km/h 4.6mph /  7.4km/h 90% 0.00in /  0mm 0.00 W/m2
00:28 14.1 °F /  -9.9 °C 11.7 °F /  -11.3 °C 30.78in /  1042.2hPa ENE 3.4mph /  5.5km/h 4.6mph /  7.4km/h 90% 0.00in /  0mm 0.00 W/m2
00:30 14.1 °F /  -9.9 °C 11.7 °F /  -11.3 °C 30.78in /  1042.2hPa ENE 2.3mph /  3.7km/h 5.8mph /  9.3km/h 90% 0.00in /  0mm 0.00 W/m2
00:33 14.1 °F /  -9.9 °C 11.7 °F /  -11.3 °C 30.78in /  1042.2hPa ENE 3.4mph /  5.5km/h 5.8mph /  9.3km/h 90% 0.00in /  0mm 0.00 W/m2
00:35 14.2 °F /  -9.9 °C 11.8 °F /  -11.2 °C 30.78in /  1042.2hPa ENE 2.3mph /  3.7km/h 5.8mph /  9.3km/h 90% 0.00in /  0mm 0.00 W/m2
00:38 14.2 °F /  -9.9 °C 11.8 °F /  -11.2 °C 30.78in /  1042.2hPa ENE 1.1mph /  1.8km/h 4.6mph /  7.4km/h 90% 0.00in /  0mm 0.00 W/m2
00:40 14.1 °F /  -9.9 °C 11.7 °F /  -11.3 °C 30.78in /  1042.2hPa ENE 2.3mph /  3.7km/h 4.6mph /  7.4km/h 90% 0.00in /  0mm 0.00 W/m2
00:43 14.0 °F /  -10 °C 11.6 °F /  -11.3 °C 30.78in /  1042.2hPa ENE 3.4mph /  5.5km/h 3.4mph /  5.5km/h 90% 0.00in /  0mm 0.00 W/m2
00:45 14.2 °F /  -9.9 °C 11.8 °F /  -11.2 °C 30.78in /  1042.2hPa ENE 3.5mph /  5.6km/h 5.8mph /  9.3km/h 90% 0.00in /  0mm 0.00 W/m2
00:48 14.3 °F /  -9.8 °C 11.9 °F /  -11.2 °C 30.78in /  1042.2hPa ENE 1.1mph /  1.8km/h 5.8mph /  9.3km/h 90% 0.00in /  0mm 0.00 W/m2
00:50 14.3 °F /  -9.8 °C 11.9 °F /  -11.2 °C 30.78in /  1042.2hPa ENE 2.3mph /  3.7km/h 5.8mph /  9.3km/h 90% 0.00in /  0mm 0.00 W/m2
00:53 14.4 °F /  -9.8 °C 12.0 °F /  -11.1 °C 30.78in /  1042.2hPa ENE 4.6mph /  7.4km/h 4.6mph /  7.4km/h 90% 0.00in /  0mm 0.00 W/m2
00:55 14.4 °F /  -9.8 °C 12.0 °F /  -11.1 °C 30.78in /  1042.2hPa ENE 3.5mph /  5.6km/h 5.8mph /  9.3km/h 90% 0.00in /  0mm 0.00 W/m2
00:58 14.5 °F /  -9.7 °C 12.1 °F /  -11.1 °C 30.78in /  1042.2hPa ENE 1.1mph /  1.8km/h 4.6mph /  7.4km/h 90% 0.00in /  0mm 0.00 W/m2
01:00 14.5 °F /  -9.7 °C 12.1 °F /  -11.1 °C 30.78in /  1042.2hPa ENE 3.5mph /  5.6km/h 4.6mph /  7.4km/h 90% 0.00in /  0mm 0.00 W/m2
01:03 14.4 °F /  -9.8 °C 12.0 °F /  -11.1 °C 30.78in /  1042.2hPa ENE 1.1mph /  1.8km/h 4.6mph /  7.4km/h 90% 0.00in /  0mm 0.00 W/m2
01:05 14.4 °F /  -9.8 °C 12.0 °F /  -11.1 °C 30.78in /  1042.2hPa ENE 3.5mph /  5.6km/h 4.6mph /  7.4km/h 90% 0.00in /  0mm 0.00 W/m2
01:09 14.5 °F /  -9.7 °C 12.1 °F /  -11.1 °C 30.78in /  1042.2hPa ENE 2.3mph /  3.7km/h 5.8mph /  9.3km/h 90% 0.00in /  0mm 0.00 W/m2
01:10 14.5 °F /  -9.7 °C 12.1 °F /  -11.1 °C 30.78in /  1042.2hPa ENE 2.3mph /  3.7km/h 5.8mph /  9.3km/h 90% 0.00in /  0mm 0.00 W/m2
01:14 14.4 °F /  -9.8 °C 12.0 °F /  -11.1 °C 30.78in /  1042.2hPa ENE 4.6mph /  7.4km/h 4.6mph /  7.4km/h 90% 0.00in /  0mm 0.00 W/m2
01:15 14.4 °F /  -9.8 °C 11.8 °F /  -11.2 °C 30.78in /  1042.2hPa ENE 3.5mph /  5.6km/h 5.8mph /  9.3km/h 89% 0.00in /  0mm 0.00 W/m2
01:19 14.4 °F /  -9.8 °C 12.0 °F /  -11.1 °C 30.78in /  1042.2hPa ENE 2.3mph /  3.7km/h 3.4mph /  5.5km/h 90% 0.00in /  0mm 0.00 W/m2
01:20 14.4 °F /  -9.8 °C 12.0 °F /  -11.1 °C 30.78in /  1042.2hPa ENE 1.1mph /  1.8km/h 3.5mph /  5.6km/h 90% 0.00in /  0mm 0.00 W/m2
01:24 14.3 °F /  -9.8 °C 11.7 °F /  -11.3 °C 30.77in /  1041.9hPa Calm   3.4mph /  5.5km/h 89% 0.00in /  0mm 0.00 W/m2
01:25 14.3 °F /  -9.8 °C 11.7 °F /  -11.3 °C 30.77in /  1041.9hPa ENE 1.1mph /  1.8km/h 3.5mph /  5.6km/h 89% 0.00in /  0mm 0.00 W/m2
01:29 14.1 °F /  -9.9 °C 11.5 °F /  -11.4 °C 30.77in /  1041.9hPa NE 2.3mph /  3.7km/h 5.8mph /  9.3km/h 89% 0.00in /  0mm 0.00 W/m2
01:30 14.1 °F /  -9.9 °C 11.5 °F /  -11.4 °C 30.77in /  1041.9hPa ENE 2.3mph /  3.7km/h 5.8mph /  9.3km/h 89% 0.00in /  0mm 0.00 W/m2
01:34 13.9 °F /  -10.1 °C 11.3 °F /  -11.5 °C 30.76in /  1041.5hPa ENE 3.4mph /  5.5km/h 5.8mph /  9.3km/h 89% 0.00in /  0mm 0.00 W/m2
01:35 13.8 °F /  -10.1 °C 11.2 °F /  -11.6 °C 30.76in /  1041.5hPa ENE 2.3mph /  3.7km/h 5.8mph /  9.3km/h 89% 0.00in /  0mm 0.00 W/m2
01:39 13.6 °F /  -10.2 °C 11.0 °F /  -11.7 °C 30.76in /  1041.5hPa ENE 3.4mph /  5.5km/h 8.1mph /  13km/h 89% 0.00in /  0mm 0.00 W/m2
01:40 13.6 °F /  -10.2 °C 11.0 °F /  -11.7 °C 30.76in /  1041.5hPa ENE 4.6mph /  7.4km/h 8.1mph /  13km/h 89% 0.00in /  0mm 0.00 W/m2
01:44 13.6 °F /  -10.2 °C 11.0 °F /  -11.7 °C 30.76in /  1041.5hPa ENE 5.8mph /  9.3km/h 5.8mph /  9.3km/h 89% 0.00in /  0mm 0.00 W/m2
01:45 13.6 °F /  -10.2 °C 11.0 °F /  -11.7 °C 30.76in /  1041.5hPa ENE 1.1mph /  1.8km/h 5.8mph /  9.3km/h 89% 0.00in /  0mm 0.00 W/m2
01:49 13.5 °F /  -10.3 °C 10.9 °F /  -11.7 °C 30.76in /  1041.5hPa ENE 2.3mph /  3.7km/h 5.8mph /  9.3km/h 89% 0.00in /  0mm 0.00 W/m2
01:50 13.5 °F /  -10.3 °C 10.9 °F /  -11.7 °C 30.76in /  1041.5hPa ENE 3.5mph /  5.6km/h 5.8mph /  9.3km/h 89% 0.00in /  0mm 0.00 W/m2
01:54 13.3 °F /  -10.4 °C 10.7 °F /  -11.8 °C 30.76in /  1041.5hPa ENE 3.4mph /  5.5km/h 8.1mph /  13km/h 89% 0.00in /  0mm 0.00 W/m2
01:55 13.3 °F /  -10.4 °C 10.7 °F /  -11.8 °C 30.76in /  1041.5hPa ENE 3.5mph /  5.6km/h 8.1mph /  13km/h 89% 0.00in /  0mm 0.00 W/m2
01:59 13.2 °F /  -10.4 °C 10.6 °F /  -11.9 °C 30.75in /  1041.2hPa ENE 2.3mph /  3.7km/h 4.6mph /  7.4km/h 89% 0.00in /  0mm 0.00 W/m2
02:00 13.2 °F /  -10.4 °C 10.6 °F /  -11.9 °C 30.75in /  1041.2hPa ENE 1.1mph /  1.8km/h 4.6mph /  7.4km/h 89% 0.00in /  0mm 0.00 W/m2
02:05 13.6 °F /  -10.2 °C 11.0 °F /  -11.7 °C 30.75in /  1041.2hPa ENE 2.3mph /  3.7km/h 9.2mph /  14.8km/h 89% 0.00in /  0mm 0.00 W/m2
02:10 13.9 °F /  -10.1 °C 11.3 °F /  -11.5 °C 30.75in /  1041.2hPa NE 4.6mph /  7.4km/h 5.8mph /  9.3km/h 89% 0.00in /  0mm 0.00 W/m2
02:15 13.6 °F /  -10.2 °C 11.0 °F /  -11.7 °C 30.75in /  1041.2hPa NE 4.6mph /  7.4km/h 8.1mph /  13km/h 89% 0.00in /  0mm 0.00 W/m2
02:20 13.8 °F /  -10.1 °C 11.2 °F /  -11.6 °C 30.75in /  1041.2hPa ENE 4.6mph /  7.4km/h 5.8mph /  9.3km/h 89% 0.00in /  0mm 0.00 W/m2
02:25 14.4 °F /  -9.8 °C 11.8 °F /  -11.2 °C 30.75in /  1041.2hPa Calm   8.1mph /  13km/h 89% 0.00in /  0mm 0.00 W/m2
02:30 14.8 °F /  -9.6 °C 12.1 °F /  -11.1 °C 30.75in /  1041.2hPa ENE 8.1mph /  13km/h 9.2mph /  14.8km/h 89% 0.00in /  0mm 0.00 W/m2
02:35 15.0 °F /  -9.4 °C 12.4 °F /  -10.9 °C 30.74in /  1040.9hPa NE 1.1mph /  1.8km/h 12.6mph /  20.3km/h 89% 0.00in /  0mm 0.00 W/m2
02:40 14.5 °F /  -9.7 °C 11.6 °F /  -11.3 °C 30.74in /  1040.9hPa ENE 3.4mph /  5.5km/h 5.8mph /  9.3km/h 88% 0.00in /  0mm 0.00 W/m2
02:45 14.3 °F /  -9.8 °C 11.4 °F /  -11.4 °C 30.74in /  1040.9hPa East 5.8mph /  9.3km/h 5.8mph /  9.3km/h 88% 0.00in /  0mm 0.00 W/m2
02:50 13.6 °F /  -10.2 °C 10.5 °F /  -11.9 °C 30.73in /  1040.5hPa East 2.3mph /  3.7km/h 8.1mph /  13km/h 87% 0.00in /  0mm 0.00 W/m2
02:51 13.6 °F /  -10.2 °C 10.5 °F /  -11.9 °C 30.73in /  1040.5hPa East 3.4mph /  5.5km/h 5.8mph /  9.3km/h 87% 0.00in /  0mm 0.00 W/m2
02:55 13.7 °F /  -10.2 °C 10.8 °F /  -11.8 °C 30.73in /  1040.5hPa ENE 3.5mph /  5.6km/h 8.1mph /  13km/h 88% 0.00in /  0mm 0.00 W/m2
02:56 13.8 °F /  -10.1 °C 10.9 °F /  -11.7 °C 30.73in /  1040.5hPa ENE 2.3mph /  3.7km/h 5.8mph /  9.3km/h 88% 0.00in /  0mm 0.00 W/m2
03:01 14.1 °F /  -9.9 °C 11.2 °F /  -11.6 °C 30.73in /  1040.5hPa East 2.3mph /  3.7km/h 3.4mph /  5.5km/h 88% 0.00in /  0mm 0.00 W/m2
03:06 13.9 °F /  -10.1 °C 10.8 °F /  -11.8 °C 30.73in /  1040.5hPa ENE 5.8mph /  9.3km/h 5.8mph /  9.3km/h 87% 0.00in /  0mm 0.00 W/m2
03:11 14.1 °F /  -9.9 °C 11.2 °F /  -11.6 °C 30.73in /  1040.5hPa ENE 3.4mph /  5.5km/h 4.6mph /  7.4km/h 88% 0.00in /  0mm 0.00 W/m2
03:16 14.2 °F /  -9.9 °C 11.3 °F /  -11.5 °C 30.73in /  1040.5hPa Calm   6.9mph /  11.1km/h 88% 0.00in /  0mm 0.00 W/m2
03:21 13.8 °F /  -10.1 °C 10.6 °F /  -11.9 °C 30.73in /  1040.5hPa ENE 2.3mph /  3.7km/h 2.3mph /  3.7km/h 87% 0.00in /  0mm 0.00 W/m2
03:26 13.2 °F /  -10.4 °C 10.1 °F /  -12.2 °C 30.73in /  1040.5hPa ENE 1.1mph /  1.8km/h 2.3mph /  3.7km/h 87% 0.00in /  0mm 0.00 W/m2
03:31 12.8 °F /  -10.7 °C 9.7 °F /  -12.4 °C 30.74in /  1040.9hPa ENE 1.1mph /  1.8km/h 3.4mph /  5.5km/h 87% 0.00in /  0mm 0.00 W/m2
03:36 12.7 °F /  -10.7 °C 9.8 °F /  -12.3 °C 30.74in /  1040.9hPa ENE 1.1mph /  1.8km/h 3.4mph /  5.5km/h 88% 0.00in /  0mm 0.00 W/m2
03:41 12.1 °F /  -11.1 °C 9.0 °F /  -12.8 °C 30.74in /  1040.9hPa ENE 1.1mph /  1.8km/h 1.1mph /  1.8km/h 87% 0.00in /  0mm 0.00 W/m2
03:46 11.5 °F /  -11.4 °C 8.4 °F /  -13.1 °C 30.74in /  1040.9hPa ENE 1.1mph /  1.8km/h 2.3mph /  3.7km/h 87% 0.00in /  0mm 0.00 W/m2
03:52 11.3 °F /  -11.5 °C 8.4 °F /  -13.1 °C 30.74in /  1040.9hPa Calm   1.1mph /  1.8km/h 88% 0.00in /  0mm 0.00 W/m2
03:57 11.1 °F /  -11.6 °C 8.2 °F /  -13.2 °C 30.74in /  1040.9hPa Calm   3.4mph /  5.5km/h 88% 0.00in /  0mm 0.00 W/m2
04:02 10.8 °F /  -11.8 °C 7.9 °F /  -13.4 °C 30.74in /  1040.9hPa ENE 1.1mph /  1.8km/h 1.1mph /  1.8km/h 88% 0.00in /  0mm 0.00 W/m2
04:07 10.8 °F /  -11.8 °C 8.2 °F /  -13.2 °C 30.74in /  1040.9hPa ENE 1.1mph /  1.8km/h 3.4mph /  5.5km/h 89% 0.00in /  0mm 0.00 W/m2
04:12 11.2 °F /  -11.6 °C 8.6 °F /  -13 °C 30.74in /  1040.9hPa Calm   3.4mph /  5.5km/h 89% 0.00in /  0mm 0.00 W/m2
04:17 11.4 °F /  -11.4 °C 8.8 °F /  -12.9 °C 30.74in /  1040.9hPa ENE 1.1mph /  1.8km/h 4.6mph /  7.4km/h 89% 0.00in /  0mm 0.00 W/m2
04:22 11.0 °F /  -11.7 °C 8.4 °F /  -13.1 °C 30.74in /  1040.9hPa ENE 1.1mph /  1.8km/h 3.4mph /  5.5km/h 89% 0.00in /  0mm 0.00 W/m2
04:27 10.8 °F /  -11.8 °C 8.2 °F /  -13.2 °C 30.74in /  1040.9hPa ENE 1.1mph /  1.8km/h 3.4mph /  5.5km/h 89% 0.00in /  0mm 0.00 W/m2
04:32 11.3 °F /  -11.5 °C 8.7 °F /  -12.9 °C 30.74in /  1040.9hPa ENE 3.4mph /  5.5km/h 3.4mph /  5.5km/h 89% 0.00in /  0mm 0.00 W/m2
04:37 11.1 °F /  -11.6 °C 8.5 °F /  -13.1 °C 30.74in /  1040.9hPa ENE 3.4mph /  5.5km/h 3.4mph /  5.5km/h 89% 0.00in /  0mm 0.00 W/m2
04:42 11.6 °F /  -11.3 °C 9.0 °F /  -12.8 °C 30.74in /  1040.9hPa ENE 2.3mph /  3.7km/h 4.6mph /  7.4km/h 89% 0.00in /  0mm 0.00 W/m2
04:48 12.3 °F /  -10.9 °C 9.7 °F /  -12.4 °C 30.73in /  1040.5hPa ENE 3.4mph /  5.5km/h 5.8mph /  9.3km/h 89% 0.00in /  0mm 0.00 W/m2
04:53 12.7 °F /  -10.7 °C 10.1 °F /  -12.2 °C 30.73in /  1040.5hPa ENE 1.1mph /  1.8km/h 3.4mph /  5.5km/h 89% 0.00in /  0mm 0.00 W/m2
04:58 12.7 °F /  -10.7 °C 10.1 °F /  -12.2 °C 30.72in /  1040.2hPa Calm   5.8mph /  9.3km/h 89% 0.00in /  0mm 0.00 W/m2
05:03 12.7 °F /  -10.7 °C 10.1 °F /  -12.2 °C 30.72in /  1040.2hPa ENE 3.4mph /  5.5km/h 4.6mph /  7.4km/h 89% 0.00in /  0mm 0.00 W/m2
05:08 12.5 °F /  -10.8 °C 9.9 °F /  -12.3 °C 30.72in /  1040.2hPa ENE 2.3mph /  3.7km/h 4.6mph /  7.4km/h 89% 0.00in /  0mm 0.00 W/m2
05:13 12.3 °F /  -10.9 °C 9.7 °F /  -12.4 °C 30.72in /  1040.2hPa ENE 2.3mph /  3.7km/h 4.6mph /  7.4km/h 89% 0.00in /  0mm 0.00 W/m2
05:18 12.3 °F /  -10.9 °C 9.4 °F /  -12.6 °C 30.71in /  1039.8hPa ENE 1.1mph /  1.8km/h 4.6mph /  7.4km/h 88% 0.00in /  0mm 0.00 W/m2
05:23 12.2 °F /  -11 °C 9.3 °F /  -12.6 °C 30.72in /  1040.2hPa ENE 2.3mph /  3.7km/h 4.6mph /  7.4km/h 88% 0.00in /  0mm 0.00 W/m2
05:28 12.4 °F /  -10.9 °C 9.8 °F /  -12.3 °C 30.72in /  1040.2hPa NE 1.1mph /  1.8km/h 5.8mph /  9.3km/h 89% 0.00in /  0mm 0.00 W/m2
05:33 12.6 °F /  -10.8 °C 10.0 °F /  -12.2 °C 30.73in /  1040.5hPa NE 2.3mph /  3.7km/h 4.6mph /  7.4km/h 89% 0.00in /  0mm 0.00 W/m2
05:38 12.9 °F /  -10.6 °C 10.0 °F /  -12.2 °C 30.72in /  1040.2hPa ENE 4.6mph /  7.4km/h 8.1mph /  13km/h 88% 0.00in /  0mm 0.00 W/m2
05:43 13.1 °F /  -10.5 °C 10.2 °F /  -12.1 °C 30.73in /  1040.5hPa ENE 3.4mph /  5.5km/h 8.1mph /  13km/h 88% 0.00in /  0mm 0.00 W/m2
05:48 12.9 °F /  -10.6 °C 10.0 °F /  -12.2 °C 30.73in /  1040.5hPa ENE 2.3mph /  3.7km/h 8.1mph /  13km/h 88% 0.00in /  0mm 0.00 W/m2
05:53 12.9 °F /  -10.6 °C 9.8 °F /  -12.3 °C 30.73in /  1040.5hPa ENE 3.4mph /  5.5km/h 3.4mph /  5.5km/h 87% 0.00in /  0mm 0.00 W/m2
05:59 13.1 °F /  -10.5 °C 10.0 °F /  -12.2 °C 30.73in /  1040.5hPa ENE 2.3mph /  3.7km/h 4.6mph /  7.4km/h 87% 0.00in /  0mm 0.00 W/m2
06:04 13.2 °F /  -10.4 °C 10.1 °F /  -12.2 °C 30.74in /  1040.9hPa ENE 2.3mph /  3.7km/h 4.6mph /  7.4km/h 87% 0.00in /  0mm 0.00 W/m2
06:09 13.1 °F /  -10.5 °C 10.0 °F /  -12.2 °C 30.74in /  1040.9hPa ENE 3.4mph /  5.5km/h 3.4mph /  5.5km/h 87% 0.00in /  0mm 0.00 W/m2
06:14 13.0 °F /  -10.6 °C 9.9 °F /  -12.3 °C 30.74in /  1040.9hPa ENE 2.3mph /  3.7km/h 5.8mph /  9.3km/h 87% 0.00in /  0mm 0.00 W/m2
06:19 12.6 °F /  -10.8 °C 9.5 °F /  -12.5 °C 30.74in /  1040.9hPa Calm   3.4mph /  5.5km/h 87% 0.00in /  0mm 0.00 W/m2
06:24 12.3 °F /  -10.9 °C 9.2 °F /  -12.7 °C 30.74in /  1040.9hPa ENE 1.1mph /  1.8km/h 3.4mph /  5.5km/h 87% 0.00in /  0mm 0.00 W/m2
06:29 12.2 °F /  -11 °C 9.1 °F /  -12.7 °C 30.74in /  1040.9hPa ENE 2.3mph /  3.7km/h 2.3mph /  3.7km/h 87% 0.00in /  0mm 0.00 W/m2
06:34 12.0 °F /  -11.1 °C 8.9 °F /  -12.8 °C 30.73in /  1040.5hPa NE 3.4mph /  5.5km/h 4.6mph /  7.4km/h 87% 0.00in /  0mm 0.00 W/m2
06:39 12.4 °F /  -10.9 °C 9.5 °F /  -12.5 °C 30.73in /  1040.5hPa NE 2.3mph /  3.7km/h 4.6mph /  7.4km/h 88% 0.00in /  0mm 0.00 W/m2
06:44 12.5 °F /  -10.8 °C 9.6 °F /  -12.4 °C 30.73in /  1040.5hPa NE 3.4mph /  5.5km/h 4.6mph /  7.4km/h 88% 0.00in /  0mm 0.00 W/m2
06:50 12.9 °F /  -10.6 °C 10.0 °F /  -12.2 °C 30.74in /  1040.9hPa Calm   4.6mph /  7.4km/h 88% 0.00in /  0mm 0.00 W/m2
06:55 13.0 °F /  -10.6 °C 10.1 °F /  -12.2 °C 30.74in /  1040.9hPa NE 2.3mph /  3.7km/h 5.8mph /  9.3km/h 88% 0.00in /  0mm 5.00 W/m2
07:00 13.5 °F /  -10.3 °C 10.6 °F /  -11.9 °C 30.74in /  1040.9hPa NE 1.1mph /  1.8km/h 4.6mph /  7.4km/h 88% 0.00in /  0mm 11.00 W/m2
07:05 14.0 °F /  -10 °C 11.1 °F /  -11.6 °C 30.73in /  1040.5hPa NE 1.1mph /  1.8km/h 5.8mph /  9.3km/h 88% 0.00in /  0mm 14.00 W/m2
07:10 14.4 °F /  -9.8 °C 11.5 °F /  -11.4 °C 30.73in /  1040.5hPa NE 2.3mph /  3.7km/h 5.8mph /  9.3km/h 88% 0.00in /  0mm 19.00 W/m2
07:15 14.7 °F /  -9.6 °C 11.8 °F /  -11.2 °C 30.73in /  1040.5hPa NE 3.4mph /  5.5km/h 4.6mph /  7.4km/h 88% 0.00in /  0mm 25.00 W/m2
07:20 14.7 °F /  -9.6 °C 11.5 °F /  -11.4 °C 30.74in /  1040.9hPa ENE 1.1mph /  1.8km/h 5.8mph /  9.3km/h 87% 0.00in /  0mm 35.00 W/m2
07:25 14.7 °F /  -9.6 °C 11.3 °F /  -11.5 °C 30.74in /  1040.9hPa ENE 1.1mph /  1.8km/h 4.6mph /  7.4km/h 86% 0.00in /  0mm 40.00 W/m2
07:30 15.0 °F /  -9.4 °C 11.8 °F /  -11.2 °C 30.74in /  1040.9hPa ENE 1.1mph /  1.8km/h 4.6mph /  7.4km/h 87% 0.00in /  0mm 47.00 W/m2
07:35 15.3 °F /  -9.3 °C 11.9 °F /  -11.2 °C 30.74in /  1040.9hPa Calm   5.8mph /  9.3km/h 86% 0.00in /  0mm 53.00 W/m2
07:40 15.7 °F /  -9.1 °C 12.3 °F /  -10.9 °C 30.74in /  1040.9hPa ENE 2.3mph /  3.7km/h 3.4mph /  5.5km/h 86% 0.00in /  0mm 79.00 W/m2
07:45 16.1 °F /  -8.8 °C 12.4 °F /  -10.9 °C 30.74in /  1040.9hPa ENE 1.1mph /  1.8km/h 1.1mph /  1.8km/h 85% 0.00in /  0mm 109.00 W/m2
07:50 16.5 °F /  -8.6 °C 12.8 °F /  -10.7 °C 30.73in /  1040.5hPa ENE 1.1mph /  1.8km/h 2.3mph /  3.7km/h 85% 0.00in /  0mm 97.00 W/m2
07:55 16.7 °F /  -8.5 °C 12.7 °F /  -10.7 °C 30.72in /  1040.2hPa ENE 3.4mph /  5.5km/h 8.1mph /  13km/h 84% 0.00in /  0mm 102.00 W/m2
08:00 17.0 °F /  -8.3 °C 13.0 °F /  -10.6 °C 30.72in /  1040.2hPa ENE 2.3mph /  3.7km/h 3.4mph /  5.5km/h 84% 0.00in /  0mm 104.00 W/m2
08:05 17.3 °F /  -8.2 °C 13.3 °F /  -10.4 °C 30.72in /  1040.2hPa NE 4.6mph /  7.4km/h 4.6mph /  7.4km/h 84% 0.00in /  0mm 95.00 W/m2
08:11 17.3 °F /  -8.2 °C 13.0 °F /  -10.6 °C 30.71in /  1039.8hPa ENE 4.6mph /  7.4km/h 5.8mph /  9.3km/h 83% 0.00in /  0mm 88.00 W/m2
08:16 17.4 °F /  -8.1 °C 13.1 °F /  -10.5 °C 30.70in /  1039.5hPa ENE 2.3mph /  3.7km/h 8.1mph /  13km/h 83% 0.00in /  0mm 104.00 W/m2
08:21 17.6 °F /  -8 °C 13.3 °F /  -10.4 °C 30.70in /  1039.5hPa ENE 3.4mph /  5.5km/h 5.8mph /  9.3km/h 83% 0.00in /  0mm 118.00 W/m2
08:26 18.1 °F /  -7.7 °C 13.8 °F /  -10.1 °C 30.70in /  1039.5hPa East 3.4mph /  5.5km/h 8.1mph /  13km/h 83% 0.00in /  0mm 132.00 W/m2
08:31 18.3 °F /  -7.6 °C 14.0 °F /  -10 °C 30.69in /  1039.2hPa ENE 4.6mph /  7.4km/h 11.5mph /  18.5km/h 83% 0.00in /  0mm 142.00 W/m2
08:36 18.6 °F /  -7.4 °C 14.3 °F /  -9.8 °C 30.69in /  1039.2hPa ENE 3.4mph /  5.5km/h 10.3mph /  16.6km/h 83% 0.00in /  0mm 153.00 W/m2
08:41 19.0 °F /  -7.2 °C 14.4 °F /  -9.8 °C 30.69in /  1039.2hPa ESE 5.8mph /  9.3km/h 9.2mph /  14.8km/h 82% 0.00in /  0mm 160.00 W/m2
08:46 19.5 °F /  -6.9 °C 14.9 °F /  -9.5 °C 30.68in /  1038.8hPa East 5.8mph /  9.3km/h 5.8mph /  9.3km/h 82% 0.00in /  0mm 165.00 W/m2
08:51 19.7 °F /  -6.8 °C 14.8 °F /  -9.6 °C 30.67in /  1038.5hPa East 14.9mph /  24km/h 14.9mph /  24km/h 81% 0.00in /  0mm 149.00 W/m2
08:56 19.7 °F /  -6.8 °C 14.8 °F /  -9.6 °C 30.66in /  1038.1hPa East 8.1mph /  13km/h 11.5mph /  18.5km/h 81% 0.00in /  0mm 167.00 W/m2
09:01 19.7 °F /  -6.8 °C 14.8 °F /  -9.6 °C 30.66in /  1038.1hPa ESE 9.2mph /  14.8km/h 9.2mph /  14.8km/h 81% 0.00in /  0mm 163.00 W/m2
09:07 19.9 °F /  -6.7 °C 15.3 °F /  -9.3 °C 30.66in /  1038.1hPa ESE 4.6mph /  7.4km/h 10.3mph /  16.6km/h 82% 0.00in /  0mm 202.00 W/m2
09:12 20.2 °F /  -6.6 °C 15.3 °F /  -9.3 °C 30.66in /  1038.1hPa ESE 4.6mph /  7.4km/h 11.5mph /  18.5km/h 81% 0.00in /  0mm 285.00 W/m2
09:17 20.8 °F /  -6.2 °C 15.9 °F /  -8.9 °C 30.66in /  1038.1hPa ESE 3.4mph /  5.5km/h 10.3mph /  16.6km/h 81% 0.00in /  0mm 348.00 W/m2
09:22 21.1 °F /  -6.1 °C 15.9 °F /  -8.9 °C 30.66in /  1038.1hPa ESE 8.1mph /  13km/h 8.1mph /  13km/h 80% 0.00in /  0mm 309.00 W/m2
09:27 21.2 °F /  -6 °C 16.3 °F /  -8.7 °C 30.65in /  1037.8hPa ESE 9.2mph /  14.8km/h 9.2mph /  14.8km/h 81% 0.00in /  0mm 294.00 W/m2
09:32 21.1 °F /  -6.1 °C 15.9 °F /  -8.9 °C 30.64in /  1037.5hPa ESE 3.4mph /  5.5km/h 12.6mph /  20.3km/h 80% 0.00in /  0mm 267.00 W/m2
09:37 21.1 °F /  -6.1 °C 16.2 °F /  -8.8 °C 30.64in /  1037.5hPa ESE 12.6mph /  20.3km/h 12.6mph /  20.3km/h 81% 0.00in /  0mm 264.00 W/m2
09:42 21.3 °F /  -5.9 °C 16.1 °F /  -8.8 °C 30.65in /  1037.8hPa ESE 10.3mph /  16.6km/h 11.5mph /  18.5km/h 80% 0.00in /  0mm 290.00 W/m2
09:47 21.7 °F /  -5.7 °C 16.5 °F /  -8.6 °C 30.65in /  1037.8hPa SE 4.6mph /  7.4km/h 9.2mph /  14.8km/h 80% 0.00in /  0mm 294.00 W/m2
09:52 22.0 °F /  -5.6 °C 16.8 °F /  -8.4 °C 30.65in /  1037.8hPa ESE 5.8mph /  9.3km/h 10.3mph /  16.6km/h 80% 0.00in /  0mm 295.00 W/m2
09:57 22.2 °F /  -5.4 °C 16.7 °F /  -8.5 °C 30.64in /  1037.5hPa ESE 5.8mph /  9.3km/h 14.9mph /  24km/h 79% 0.00in /  0mm 318.00 W/m2
10:02 22.4 °F /  -5.3 °C 16.6 °F /  -8.6 °C 30.64in /  1037.5hPa ESE 5.8mph /  9.3km/h 14.9mph /  24km/h 78% 0.00in /  0mm 329.00 W/m2
10:07 22.3 °F /  -5.4 °C 16.5 °F /  -8.6 °C 30.64in /  1037.5hPa SE 8.1mph /  13km/h 12.6mph /  20.3km/h 78% 0.00in /  0mm 323.00 W/m2
10:09 22.3 °F /  -5.4 °C 16.5 °F /  -8.6 °C 30.64in /  1037.5hPa East 8.1mph /  13km/h 13.8mph /  22.2km/h 78% 0.00in /  0mm 348.00 W/m2
10:15 22.5 °F /  -5.3 °C 16.7 °F /  -8.5 °C 30.63in /  1037.1hPa ESE 8.1mph /  13km/h 12.6mph /  20.3km/h 78% 0.00in /  0mm 373.00 W/m2
10:20 22.7 °F /  -5.2 °C 16.9 °F /  -8.4 °C 30.63in /  1037.1hPa ESE 10.3mph /  16.6km/h 12.6mph /  20.3km/h 78% 0.00in /  0mm 336.00 W/m2
10:25 23.0 °F /  -5 °C 17.2 °F /  -8.2 °C 30.64in /  1037.5hPa ESE 9.2mph /  14.8km/h 12.6mph /  20.3km/h 78% 0.00in /  0mm 255.00 W/m2
10:30 23.4 °F /  -4.8 °C 17.3 °F /  -8.2 °C 30.64in /  1037.5hPa ESE 5.8mph /  9.3km/h 12.6mph /  20.3km/h 77% 0.00in /  0mm 246.00 W/m2
10:35 23.1 °F /  -4.9 °C 17.0 °F /  -8.3 °C 30.64in /  1037.5hPa ESE 8.1mph /  13km/h 10.3mph /  16.6km/h 77% 0.00in /  0mm 183.00 W/m2
10:40 23.3 °F /  -4.8 °C 16.9 °F /  -8.4 °C 30.64in /  1037.5hPa ESE 9.2mph /  14.8km/h 11.5mph /  18.5km/h 76% 0.00in /  0mm 156.00 W/m2
10:45 23.0 °F /  -5 °C 16.3 °F /  -8.7 °C 30.64in /  1037.5hPa ESE 5.8mph /  9.3km/h 10.3mph /  16.6km/h 75% 0.00in /  0mm 141.00 W/m2
10:50 22.9 °F /  -5.1 °C 16.5 °F /  -8.6 °C 30.63in /  1037.1hPa ESE 5.8mph /  9.3km/h 9.2mph /  14.8km/h 76% 0.00in /  0mm 174.00 W/m2
10:55 22.7 °F /  -5.2 °C 16.3 °F /  -8.7 °C 30.63in /  1037.1hPa ESE 1.1mph /  1.8km/h 8.1mph /  13km/h 76% 0.00in /  0mm 179.00 W/m2
11:00 22.8 °F /  -5.1 °C 16.4 °F /  -8.7 °C 30.62in /  1036.8hPa East 5.8mph /  9.3km/h 9.2mph /  14.8km/h 76% 0.00in /  0mm 323.00 W/m2
11:05 22.8 °F /  -5.1 °C 16.4 °F /  -8.7 °C 30.62in /  1036.8hPa ESE 3.4mph /  5.5km/h 5.8mph /  9.3km/h 76% 0.00in /  0mm 429.00 W/m2
11:10 23.0 °F /  -5 °C 16.6 °F /  -8.6 °C 30.61in /  1036.5hPa ESE 5.8mph /  9.3km/h 8.1mph /  13km/h 76% 0.00in /  0mm 624.00 W/m2
11:15 23.8 °F /  -4.6 °C 17.4 °F /  -8.1 °C 30.61in /  1036.5hPa ESE 4.6mph /  7.4km/h 5.8mph /  9.3km/h 76% 0.00in /  0mm 742.00 W/m2
11:20 24.2 °F /  -4.3 °C 17.4 °F /  -8.1 °C 30.60in /  1036.1hPa ESE 3.4mph /  5.5km/h 3.4mph /  5.5km/h 75% 0.00in /  0mm 575.00 W/m2
11:26 24.2 °F /  -4.3 °C 17.1 °F /  -8.3 °C 30.60in /  1036.1hPa ESE 3.4mph /  5.5km/h 3.4mph /  5.5km/h 74% 0.00in /  0mm 504.00 W/m2
11:31 24.1 °F /  -4.4 °C 17.0 °F /  -8.3 °C 30.60in /  1036.1hPa ESE 1.1mph /  1.8km/h 2.3mph /  3.7km/h 74% 0.00in /  0mm 441.00 W/m2
11:36 25.0 °F /  -3.9 °C 18.2 °F /  -7.7 °C 30.60in /  1036.1hPa SE 3.4mph /  5.5km/h 3.4mph /  5.5km/h 75% 0.00in /  0mm 612.00 W/m2
11:41 25.2 °F /  -3.8 °C 18.4 °F /  -7.6 °C 30.60in /  1036.1hPa ESE 5.8mph /  9.3km/h 8.1mph /  13km/h 75% 0.00in /  0mm 831.00 W/m2
11:46 25.4 °F /  -3.7 °C 18.0 °F /  -7.8 °C 30.59in /  1035.8hPa ESE 2.3mph /  3.7km/h 4.6mph /  7.4km/h 73% 0.00in /  0mm 694.00 W/m2
11:51 25.7 °F /  -3.5 °C 18.6 °F /  -7.4 °C 30.58in /  1035.4hPa ESE 4.6mph /  7.4km/h 5.8mph /  9.3km/h 74% 0.00in /  0mm 385.00 W/m2
11:56 25.6 °F /  -3.6 °C 18.2 °F /  -7.7 °C 30.58in /  1035.4hPa ESE 5.8mph /  9.3km/h 5.8mph /  9.3km/h 73% 0.00in /  0mm 411.00 W/m2
12:01 25.9 °F /  -3.4 °C 18.8 °F /  -7.3 °C 30.58in /  1035.4hPa ESE 5.8mph /  9.3km/h 5.8mph /  9.3km/h 74% 0.00in /  0mm 545.00 W/m2
12:06 26.3 °F /  -3.2 °C 19.1 °F /  -7.2 °C 30.58in /  1035.4hPa SE 2.3mph /  3.7km/h 3.4mph /  5.5km/h 74% 0.00in /  0mm 411.00 W/m2
12:11 26.6 °F /  -3 °C 19.4 °F /  -7 °C 30.58in /  1035.4hPa ESE 8.1mph /  13km/h 8.1mph /  13km/h 74% 0.00in /  0mm 397.00 W/m2
12:16 26.5 °F /  -3.1 °C 19.0 °F /  -7.2 °C 30.58in /  1035.4hPa ESE 1.1mph /  1.8km/h 5.8mph /  9.3km/h 73% 0.00in /  0mm 385.00 W/m2
12:21 26.2 °F /  -3.2 °C 18.7 °F /  -7.4 °C 30.57in /  1035.1hPa ESE 1.1mph /  1.8km/h 5.8mph /  9.3km/h 73% 0.00in /  0mm 364.00 W/m2
12:27 26.2 °F /  -3.2 °C 19.1 °F /  -7.2 °C 30.56in /  1034.8hPa ESE 3.4mph /  5.5km/h 5.8mph /  9.3km/h 74% 0.00in /  0mm 410.00 W/m2
12:32 26.7 °F /  -2.9 °C 19.2 °F /  -7.1 °C 30.56in /  1034.8hPa ESE 1.1mph /  1.8km/h 3.4mph /  5.5km/h 73% 0.00in /  0mm 455.00 W/m2
12:37 26.8 °F /  -2.9 °C 19.3 °F /  -7.1 °C 30.55in /  1034.4hPa ESE 1.1mph /  1.8km/h 5.8mph /  9.3km/h 73% 0.00in /  0mm 388.00 W/m2
12:42 27.1 °F /  -2.7 °C 19.9 °F /  -6.7 °C 30.55in /  1034.4hPa ESE 3.4mph /  5.5km/h 3.4mph /  5.5km/h 74% 0.00in /  0mm 362.00 W/m2
12:47 28.3 °F /  -2.1 °C 20.8 °F /  -6.2 °C 30.54in /  1034.1hPa ESE 3.4mph /  5.5km/h 4.6mph /  7.4km/h 73% 0.00in /  0mm 417.00 W/m2
12:52 28.0 °F /  -2.2 °C 19.5 °F /  -6.9 °C 30.54in /  1034.1hPa ESE 5.8mph /  9.3km/h 5.8mph /  9.3km/h 70% 0.00in /  0mm 315.00 W/m2
12:57 28.1 °F /  -2.2 °C 19.9 °F /  -6.7 °C 30.54in /  1034.1hPa ESE 3.4mph /  5.5km/h 5.8mph /  9.3km/h 71% 0.00in /  0mm 357.00 W/m2
13:02 28.1 °F /  -2.2 °C 19.6 °F /  -6.9 °C 30.53in /  1033.7hPa Calm   5.8mph /  9.3km/h 70% 0.00in /  0mm 316.00 W/m2
13:07 28.5 °F /  -1.9 °C 20.6 °F /  -6.3 °C 30.53in /  1033.7hPa ESE 1.1mph /  1.8km/h 4.6mph /  7.4km/h 72% 0.00in /  0mm 334.00 W/m2
13:12 29.0 °F /  -1.7 °C 21.1 °F /  -6.1 °C 30.52in /  1033.4hPa ESE 4.6mph /  7.4km/h 8.1mph /  13km/h 72% 0.00in /  0mm 346.00 W/m2
13:17 28.7 °F /  -1.8 °C 20.5 °F /  -6.4 °C 30.51in /  1033.1hPa ESE 2.3mph /  3.7km/h 5.8mph /  9.3km/h 71% 0.00in /  0mm 327.00 W/m2
13:22 28.5 °F /  -1.9 °C 20.3 °F /  -6.5 °C 30.51in /  1033.1hPa East 1.1mph /  1.8km/h 4.6mph /  7.4km/h 71% 0.00in /  0mm 304.00 W/m2
13:27 29.4 °F /  -1.4 °C 21.2 °F /  -6 °C 30.50in /  1032.7hPa SE 8.1mph /  13km/h 9.2mph /  14.8km/h 71% 0.00in /  0mm 288.00 W/m2
13:33 29.6 °F /  -1.3 °C 21.0 °F /  -6.1 °C 30.49in /  1032.4hPa ESE 8.1mph /  13km/h 8.1mph /  13km/h 70% 0.00in /  0mm 283.00 W/m2
13:38 29.6 °F /  -1.3 °C 20.4 °F /  -6.4 °C 30.49in /  1032.4hPa East 6.9mph /  11.1km/h 6.9mph /  11.1km/h 68% 0.00in /  0mm 264.00 W/m2
13:43 29.4 °F /  -1.4 °C 20.8 °F /  -6.2 °C 30.48in /  1032.1hPa ESE 4.6mph /  7.4km/h 5.8mph /  9.3km/h 70% 0.00in /  0mm 269.00 W/m2
13:48 29.8 °F /  -1.2 °C 21.2 °F /  -6 °C 30.47in /  1031.7hPa ESE 4.6mph /  7.4km/h 5.8mph /  9.3km/h 70% 0.00in /  0mm 294.00 W/m2
13:53 29.9 °F /  -1.2 °C 21.0 °F /  -6.1 °C 30.47in /  1031.7hPa ESE 4.6mph /  7.4km/h 8.1mph /  13km/h 69% 0.00in /  0mm 274.00 W/m2
13:58 29.7 °F /  -1.3 °C 20.8 °F /  -6.2 °C 30.46in /  1031.4hPa ESE 8.1mph /  13km/h 9.2mph /  14.8km/h 69% 0.00in /  0mm 264.00 W/m2
14:03 29.7 °F /  -1.3 °C 21.1 °F /  -6.1 °C 30.46in /  1031.4hPa ESE 8.1mph /  13km/h 8.1mph /  13km/h 70% 0.00in /  0mm 262.00 W/m2
14:08 29.8 °F /  -1.2 °C 21.2 °F /  -6 °C 30.46in /  1031.4hPa ESE 2.3mph /  3.7km/h 10.3mph /  16.6km/h 70% 0.00in /  0mm 255.00 W/m2
14:13 29.9 °F /  -1.2 °C 21.3 °F /  -5.9 °C 30.46in /  1031.4hPa ESE 4.6mph /  7.4km/h 8.1mph /  13km/h 70% 0.00in /  0mm 251.00 W/m2
14:18 30.1 °F /  -1.1 °C 21.2 °F /  -6 °C 30.46in /  1031.4hPa ESE 4.6mph /  7.4km/h 4.6mph /  7.4km/h 69% 0.00in /  0mm 241.00 W/m2
14:23 30.6 °F /  -0.8 °C 22.3 °F /  -5.4 °C 30.46in /  1031.4hPa SE 6.9mph /  11.1km/h 6.9mph /  11.1km/h 71% 0.00in /  0mm 255.00 W/m2
14:28 31.0 °F /  -0.6 °C 22.4 °F /  -5.3 °C 30.46in /  1031.4hPa ESE 5.8mph /  9.3km/h 8.1mph /  13km/h 70% 0.00in /  0mm 248.00 W/m2
14:33 31.0 °F /  -0.6 °C 22.7 °F /  -5.2 °C 30.46in /  1031.4hPa ESE 3.4mph /  5.5km/h 9.2mph /  14.8km/h 71% 0.00in /  0mm 265.00 W/m2
14:39 31.4 °F /  -0.3 °C 23.8 °F /  -4.6 °C 30.45in /  1031hPa SE 4.6mph /  7.4km/h 9.2mph /  14.8km/h 73% 0.00in /  0mm 246.00 W/m2
14:44 31.5 °F /  -0.3 °C 23.5 °F /  -4.7 °C 30.45in /  1031hPa ESE 9.2mph /  14.8km/h 10.3mph /  16.6km/h 72% 0.00in /  0mm 253.00 W/m2
14:49 31.4 °F /  -0.3 °C 23.8 °F /  -4.6 °C 30.45in /  1031hPa ESE 8.1mph /  13km/h 9.2mph /  14.8km/h 73% 0.00in /  0mm 248.00 W/m2
14:54 31.7 °F /  -0.2 °C 24.7 °F /  -4.1 °C 30.45in /  1031hPa SE 5.8mph /  9.3km/h 10.3mph /  16.6km/h 75% 0.00in /  0mm 246.00 W/m2
14:59 31.9 °F /  -0.1 °C 24.2 °F /  -4.3 °C 30.44in /  1030.7hPa ESE 4.6mph /  7.4km/h 9.2mph /  14.8km/h 73% 0.00in /  0mm 258.00 W/m2
15:04 32.0 °F /  0 °C 24.7 °F /  -4.1 °C 30.44in /  1030.7hPa ESE 4.6mph /  7.4km/h 8.1mph /  13km/h 74% 0.00in /  0mm 241.00 W/m2
15:10 31.8 °F /  -0.1 °C 24.1 °F /  -4.4 °C 30.44in /  1030.7hPa ESE 2.3mph /  3.7km/h 9.2mph /  14.8km/h 73% 0.00in /  0mm 223.00 W/m2
15:15 31.6 °F /  -0.2 °C 24.0 °F /  -4.4 °C 30.44in /  1030.7hPa ESE 4.6mph /  7.4km/h 5.8mph /  9.3km/h 73% 0.00in /  0mm 206.00 W/m2
15:20 31.7 °F /  -0.2 °C 24.4 °F /  -4.2 °C 30.43in /  1030.4hPa SE 1.1mph /  1.8km/h 5.8mph /  9.3km/h 74% 0.00in /  0mm 195.00 W/m2
15:25 31.8 °F /  -0.1 °C 24.5 °F /  -4.2 °C 30.43in /  1030.4hPa SE 4.6mph /  7.4km/h 6.9mph /  11.1km/h 74% 0.00in /  0mm 188.00 W/m2
15:30 31.8 °F /  -0.1 °C 24.8 °F /  -4 °C 30.42in /  1030hPa ESE 4.6mph /  7.4km/h 8.1mph /  13km/h 75% 0.00in /  0mm 174.00 W/m2
15:35 31.7 °F /  -0.2 °C 24.7 °F /  -4.1 °C 30.42in /  1030hPa ESE 8.1mph /  13km/h 9.2mph /  14.8km/h 75% 0.00in /  0mm 169.00 W/m2
15:40 31.7 °F /  -0.2 °C 25.0 °F /  -3.9 °C 30.42in /  1030hPa SE 2.3mph /  3.7km/h 10.3mph /  16.6km/h 76% 0.00in /  0mm 163.00 W/m2
15:45 31.6 °F /  -0.2 °C 24.9 °F /  -3.9 °C 30.42in /  1030hPa ESE 3.4mph /  5.5km/h 9.2mph /  14.8km/h 76% 0.00in /  0mm 162.00 W/m2
15:50 31.6 °F /  -0.2 °C 24.9 °F /  -3.9 °C 30.41in /  1029.7hPa ESE 4.6mph /  7.4km/h 4.6mph /  7.4km/h 76% 0.00in /  0mm 148.00 W/m2
15:55 31.5 °F /  -0.3 °C 25.1 °F /  -3.8 °C 30.42in /  1030hPa East 5.8mph /  9.3km/h 8.1mph /  13km/h 77% 0.00in /  0mm 148.00 W/m2
16:00 31.5 °F /  -0.3 °C 25.1 °F /  -3.8 °C 30.42in /  1030hPa ENE 2.3mph /  3.7km/h 2.3mph /  3.7km/h 77% 0.00in /  0mm 142.00 W/m2
16:05 31.4 °F /  -0.3 °C 24.7 °F /  -4.1 °C 30.41in /  1029.7hPa East 2.3mph /  3.7km/h 8.1mph /  13km/h 76% 0.00in /  0mm 139.00 W/m2
16:10 31.3 °F /  -0.4 °C 24.6 °F /  -4.1 °C 30.41in /  1029.7hPa ESE 3.4mph /  5.5km/h 4.6mph /  7.4km/h 76% 0.00in /  0mm 134.00 W/m2
16:16 31.0 °F /  -0.6 °C 24.6 °F /  -4.1 °C 30.40in /  1029.3hPa ESE 5.8mph /  9.3km/h 8.1mph /  13km/h 77% 0.00in /  0mm 113.00 W/m2
16:21 30.9 °F /  -0.6 °C 24.5 °F /  -4.2 °C 30.40in /  1029.3hPa East 5.8mph /  9.3km/h 5.8mph /  9.3km/h 77% 0.00in /  0mm 95.00 W/m2
16:26 30.8 °F /  -0.7 °C 24.5 °F /  -4.2 °C 30.40in /  1029.3hPa East 5.8mph /  9.3km/h 6.9mph /  11.1km/h 77% 0.00in /  0mm 100.00 W/m2
16:31 30.8 °F /  -0.7 °C 24.5 °F /  -4.2 °C 30.41in /  1029.7hPa East 1.1mph /  1.8km/h 1.1mph /  1.8km/h 77% 0.00in /  0mm 93.00 W/m2
16:36 30.9 °F /  -0.6 °C 24.5 °F /  -4.2 °C 30.40in /  1029.3hPa East 3.4mph /  5.5km/h 3.4mph /  5.5km/h 77% 0.00in /  0mm 76.00 W/m2
16:41 30.8 °F /  -0.7 °C 24.5 °F /  -4.2 °C 30.40in /  1029.3hPa East 3.4mph /  5.5km/h 3.4mph /  5.5km/h 77% 0.00in /  0mm 69.00 W/m2
16:46 30.7 °F /  -0.7 °C 24.4 °F /  -4.2 °C 30.39in /  1029hPa East 2.3mph /  3.7km/h 2.3mph /  3.7km/h 77% 0.00in /  0mm 62.00 W/m2
16:51 30.5 °F /  -0.8 °C 24.2 °F /  -4.3 °C 30.39in /  1029hPa Calm   1.1mph /  1.8km/h 77% 0.00in /  0mm 62.00 W/m2
16:56 30.3 °F /  -0.9 °C 24.3 °F /  -4.3 °C 30.39in /  1029hPa East 1.1mph /  1.8km/h 5.8mph /  9.3km/h 78% 0.00in /  0mm 53.00 W/m2
17:01 30.4 °F /  -0.9 °C 24.4 °F /  -4.2 °C 30.39in /  1029hPa Calm     78% 0.00in /  0mm 37.00 W/m2
17:06 30.2 °F /  -1 °C 24.2 °F /  -4.3 °C 30.39in /  1029hPa East 2.3mph /  3.7km/h 3.4mph /  5.5km/h 78% 0.00in /  0mm 26.00 W/m2
17:11 30.0 °F /  -1.1 °C 24.0 °F /  -4.4 °C 30.39in /  1029hPa Calm   3.4mph /  5.5km/h 78% 0.00in /  0mm 16.00 W/m2
17:17 29.4 °F /  -1.4 °C 23.7 °F /  -4.6 °C 30.39in /  1029hPa ENE 3.4mph /  5.5km/h 3.4mph /  5.5km/h 79% 0.00in /  0mm 12.00 W/m2
17:22 29.0 °F /  -1.7 °C 23.3 °F /  -4.8 °C 30.40in /  1029.3hPa Calm   3.4mph /  5.5km/h 79% 0.00in /  0mm 7.00 W/m2
17:27 28.5 °F /  -1.9 °C 23.1 °F /  -4.9 °C 30.40in /  1029.3hPa ENE 1.1mph /  1.8km/h 3.4mph /  5.5km/h 80% 0.00in /  0mm 5.00 W/m2
17:32 28.0 °F /  -2.2 °C 22.6 °F /  -5.2 °C 30.39in /  1029hPa Calm     80% 0.00in /  0mm 0.00 W/m2
17:37 28.0 °F /  -2.2 °C 22.6 °F /  -5.2 °C 30.39in /  1029hPa ENE 1.1mph /  1.8km/h 3.4mph /  5.5km/h 80% 0.00in /  0mm 0.00 W/m2
17:42 27.8 °F /  -2.3 °C 22.7 °F /  -5.2 °C 30.39in /  1029hPa Calm   3.4mph /  5.5km/h 81% 0.00in /  0mm 0.00 W/m2
17:47 27.5 °F /  -2.5 °C 22.7 °F /  -5.2 °C 30.40in /  1029.3hPa ENE 2.3mph /  3.7km/h 4.6mph /  7.4km/h 82% 0.00in /  0mm 0.00 W/m2
17:52 27.4 °F /  -2.6 °C 22.4 °F /  -5.3 °C 30.39in /  1029hPa ENE 1.1mph /  1.8km/h 3.4mph /  5.5km/h 81% 0.00in /  0mm 0.00 W/m2
17:57 27.4 °F /  -2.6 °C 22.0 °F /  -5.6 °C 30.39in /  1029hPa ENE 1.1mph /  1.8km/h 2.3mph /  3.7km/h 80% 0.00in /  0mm 0.00 W/m2
18:02 27.5 °F /  -2.5 °C 22.5 °F /  -5.3 °C 30.40in /  1029.3hPa Calm     81% 0.00in /  0mm 0.00 W/m2
18:07 27.3 °F /  -2.6 °C 22.2 °F /  -5.4 °C 30.40in /  1029.3hPa Calm   1.1mph /  1.8km/h 81% 0.00in /  0mm 0.00 W/m2
18:12 27.2 °F /  -2.7 °C 22.4 °F /  -5.3 °C 30.40in /  1029.3hPa Calm     82% 0.00in /  0mm 0.00 W/m2
18:18 26.8 °F /  -2.9 °C 22.0 °F /  -5.6 °C 30.40in /  1029.3hPa Calm     82% 0.00in /  0mm 0.00 W/m2
18:23 26.3 °F /  -3.2 °C 21.6 °F /  -5.8 °C 30.40in /  1029.3hPa ENE 2.3mph /  3.7km/h 2.3mph /  3.7km/h 82% 0.00in /  0mm 0.00 W/m2
18:28 25.9 °F /  -3.4 °C 21.2 °F /  -6 °C 30.39in /  1029hPa ENE 3.4mph /  5.5km/h 3.4mph /  5.5km/h 82% 0.00in /  0mm 0.00 W/m2
18:33 25.6 °F /  -3.6 °C 20.9 °F /  -6.2 °C 30.39in /  1029hPa Calm   2.3mph /  3.7km/h 82% 0.00in /  0mm 0.00 W/m2
18:38 25.4 °F /  -3.7 °C 21.0 °F /  -6.1 °C 30.39in /  1029hPa Calm     83% 0.00in /  0mm 0.00 W/m2
18:43 25.2 °F /  -3.8 °C 20.8 °F /  -6.2 °C 30.38in /  1028.7hPa ENE 3.4mph /  5.5km/h 3.4mph /  5.5km/h 83% 0.00in /  0mm 0.00 W/m2
18:48 25.2 °F /  -3.8 °C 20.8 °F /  -6.2 °C 30.38in /  1028.7hPa ENE 2.3mph /  3.7km/h 3.4mph /  5.5km/h 83% 0.00in /  0mm 0.00 W/m2
18:53 25.2 °F /  -3.8 °C 20.8 °F /  -6.2 °C 30.38in /  1028.7hPa ENE 2.3mph /  3.7km/h 3.4mph /  5.5km/h 83% 0.00in /  0mm 0.00 W/m2
18:58 25.1 °F /  -3.8 °C 20.7 °F /  -6.3 °C 30.38in /  1028.7hPa ENE 2.3mph /  3.7km/h 3.4mph /  5.5km/h 83% 0.00in /  0mm 0.00 W/m2
19:03 24.6 °F /  -4.1 °C 20.2 °F /  -6.6 °C 30.38in /  1028.7hPa ENE 3.4mph /  5.5km/h 3.4mph /  5.5km/h 83% 0.00in /  0mm 0.00 W/m2
19:08 24.3 °F /  -4.3 °C 19.9 °F /  -6.7 °C 30.37in /  1028.3hPa ENE 2.3mph /  3.7km/h 4.6mph /  7.4km/h 83% 0.00in /  0mm 0.00 W/m2
19:13 24.0 °F /  -4.4 °C 19.6 °F /  -6.9 °C 30.37in /  1028.3hPa ENE 1.1mph /  1.8km/h 2.3mph /  3.7km/h 83% 0.00in /  0mm 0.00 W/m2
19:18 23.6 °F /  -4.7 °C 19.5 °F /  -6.9 °C 30.37in /  1028.3hPa ENE 3.4mph /  5.5km/h 5.8mph /  9.3km/h 84% 0.00in /  0mm 0.00 W/m2
19:24 23.4 °F /  -4.8 °C 19.3 °F /  -7.1 °C 30.37in /  1028.3hPa ENE 3.4mph /  5.5km/h 4.6mph /  7.4km/h 84% 0.00in /  0mm 0.00 W/m2
19:29 22.8 °F /  -5.1 °C 18.7 °F /  -7.4 °C 30.37in /  1028.3hPa ENE 3.4mph /  5.5km/h 3.4mph /  5.5km/h 84% 0.00in /  0mm 0.00 W/m2
19:34 22.6 °F /  -5.2 °C 18.8 °F /  -7.3 °C 30.37in /  1028.3hPa ENE 3.4mph /  5.5km/h 3.4mph /  5.5km/h 85% 0.00in /  0mm 0.00 W/m2
19:39 22.9 °F /  -5.1 °C 19.4 °F /  -7 °C 30.37in /  1028.3hPa ENE 2.3mph /  3.7km/h 4.6mph /  7.4km/h 86% 0.00in /  0mm 0.00 W/m2
19:44 23.6 °F /  -4.7 °C 20.0 °F /  -6.7 °C 30.36in /  1028hPa ESE 3.4mph /  5.5km/h 5.8mph /  9.3km/h 86% 0.00in /  0mm 0.00 W/m2
19:49 24.0 °F /  -4.4 °C 20.1 °F /  -6.6 °C 30.36in /  1028hPa ESE 2.3mph /  3.7km/h 5.8mph /  9.3km/h 85% 0.00in /  0mm 0.00 W/m2
19:54 23.6 °F /  -4.7 °C 19.8 °F /  -6.8 °C 30.35in /  1027.7hPa ESE 3.4mph /  5.5km/h 5.8mph /  9.3km/h 85% 0.00in /  0mm 0.00 W/m2
19:59 23.4 °F /  -4.8 °C 19.6 °F /  -6.9 °C 30.35in /  1027.7hPa ESE 3.4mph /  5.5km/h 4.6mph /  7.4km/h 85% 0.00in /  0mm 0.00 W/m2
20:05 23.4 °F /  -4.8 °C 19.6 °F /  -6.9 °C 30.35in /  1027.7hPa ESE 3.4mph /  5.5km/h 4.6mph /  7.4km/h 85% 0.00in /  0mm 0.00 W/m2
20:10 23.5 °F /  -4.7 °C 19.7 °F /  -6.8 °C 30.36in /  1028hPa SE 4.6mph /  7.4km/h 6.9mph /  11.1km/h 85% 0.00in /  0mm 0.00 W/m2
20:15 23.5 °F /  -4.7 °C 19.7 °F /  -6.8 °C 30.36in /  1028hPa SE 3.4mph /  5.5km/h 5.8mph /  9.3km/h 85% 0.00in /  0mm 0.00 W/m2
20:21 23.6 °F /  -4.7 °C 19.8 °F /  -6.8 °C 30.35in /  1027.7hPa ESE 2.3mph /  3.7km/h 4.6mph /  7.4km/h 85% 0.00in /  0mm 0.00 W/m2
20:26 23.3 °F /  -4.8 °C 19.5 °F /  -6.9 °C 30.35in /  1027.7hPa ESE 3.4mph /  5.5km/h 4.6mph /  7.4km/h 85% 0.00in /  0mm 0.00 W/m2
20:31 23.4 °F /  -4.8 °C 19.8 °F /  -6.8 °C 30.35in /  1027.7hPa ESE 4.6mph /  7.4km/h 5.8mph /  9.3km/h 86% 0.00in /  0mm 0.00 W/m2
20:36 23.4 °F /  -4.8 °C 19.8 °F /  -6.8 °C 30.35in /  1027.7hPa SE 4.6mph /  7.4km/h 4.6mph /  7.4km/h 86% 0.00in /  0mm 0.00 W/m2
20:41 23.3 °F /  -4.8 °C 19.7 °F /  -6.8 °C 30.35in /  1027.7hPa SE 4.6mph /  7.4km/h 5.8mph /  9.3km/h 86% 0.00in /  0mm 0.00 W/m2
20:46 23.4 °F /  -4.8 °C 19.8 °F /  -6.8 °C 30.35in /  1027.7hPa SE 4.6mph /  7.4km/h 6.9mph /  11.1km/h 86% 0.00in /  0mm 0.00 W/m2
20:51 24.0 °F /  -4.4 °C 20.7 °F /  -6.3 °C 30.34in /  1027.3hPa SSE 2.3mph /  3.7km/h 5.8mph /  9.3km/h 87% 0.00in /  0mm 0.00 W/m2
20:56 24.4 °F /  -4.2 °C 21.1 °F /  -6.1 °C 30.34in /  1027.3hPa SE 5.8mph /  9.3km/h 9.2mph /  14.8km/h 87% 0.00in /  0mm 0.00 W/m2
21:01 24.6 °F /  -4.1 °C 21.0 °F /  -6.1 °C 30.34in /  1027.3hPa SE 4.6mph /  7.4km/h 6.9mph /  11.1km/h 86% 0.00in /  0mm 0.00 W/m2
21:06 24.7 °F /  -4.1 °C 21.1 °F /  -6.1 °C 30.34in /  1027.3hPa SSE 4.6mph /  7.4km/h 5.8mph /  9.3km/h 86% 0.00in /  0mm 0.00 W/m2
21:11 24.5 °F /  -4.2 °C 20.9 °F /  -6.2 °C 30.34in /  1027.3hPa SSE 2.3mph /  3.7km/h 3.4mph /  5.5km/h 86% 0.00in /  0mm 0.00 W/m2
21:17 24.4 °F /  -4.2 °C 21.1 °F /  -6.1 °C 30.34in /  1027.3hPa SE 4.6mph /  7.4km/h 5.8mph /  9.3km/h 87% 0.00in /  0mm 0.00 W/m2
21:22 24.4 °F /  -4.2 °C 21.1 °F /  -6.1 °C 30.34in /  1027.3hPa SE 2.3mph /  3.7km/h 5.8mph /  9.3km/h 87% 0.00in /  0mm 0.00 W/m2
21:27 24.2 °F /  -4.3 °C 20.9 °F /  -6.2 °C 30.34in /  1027.3hPa SE 3.4mph /  5.5km/h 5.8mph /  9.3km/h 87% 0.00in /  0mm 0.00 W/m2
21:32 23.9 °F /  -4.5 °C 20.6 °F /  -6.3 °C 30.34in /  1027.3hPa SE 2.3mph /  3.7km/h 2.3mph /  3.7km/h 87% 0.00in /  0mm 0.00 W/m2
21:37 23.6 °F /  -4.7 °C 20.3 °F /  -6.5 °C 30.34in /  1027.3hPa SE 2.3mph /  3.7km/h 2.3mph /  3.7km/h 87% 0.00in /  0mm 0.00 W/m2
21:42 23.3 °F /  -4.8 °C 20.3 °F /  -6.5 °C 30.34in /  1027.3hPa SE 2.3mph /  3.7km/h 3.4mph /  5.5km/h 88% 0.00in /  0mm 0.00 W/m2
21:47 23.2 °F /  -4.9 °C 20.2 °F /  -6.6 °C 30.33in /  1027hPa SE 4.6mph /  7.4km/h 4.6mph /  7.4km/h 88% 0.00in /  0mm 0.00 W/m2
21:52 22.9 °F /  -5.1 °C 19.9 °F /  -6.7 °C 30.33in /  1027hPa SE 2.3mph /  3.7km/h 3.4mph /  5.5km/h 88% 0.00in /  0mm 0.00 W/m2
21:57 22.9 °F /  -5.1 °C 20.1 °F /  -6.6 °C 30.33in /  1027hPa SE 2.3mph /  3.7km/h 3.4mph /  5.5km/h 89% 0.00in /  0mm 0.00 W/m2
22:02 22.7 °F /  -5.2 °C 20.0 °F /  -6.7 °C 30.33in /  1027hPa SE 4.6mph /  7.4km/h 4.6mph /  7.4km/h 89% 0.00in /  0mm 0.00 W/m2
22:07 22.4 °F /  -5.3 °C 19.7 °F /  -6.8 °C 30.32in /  1026.6hPa SE 3.4mph /  5.5km/h 4.6mph /  7.4km/h 89% 0.00in /  0mm 0.00 W/m2
22:13 22.4 °F /  -5.3 °C 19.7 °F /  -6.8 °C 30.32in /  1026.6hPa SSE 4.6mph /  7.4km/h 5.8mph /  9.3km/h 89% 0.00in /  0mm 0.00 W/m2
22:18 22.8 °F /  -5.1 °C 20.3 °F /  -6.5 °C 30.32in /  1026.6hPa SSE 2.3mph /  3.7km/h 4.6mph /  7.4km/h 90% 0.00in /  0mm 0.00 W/m2
22:23 23.1 °F /  -4.9 °C 20.6 °F /  -6.3 °C 30.32in /  1026.6hPa SSE 3.4mph /  5.5km/h 5.8mph /  9.3km/h 90% 0.00in /  0mm 0.00 W/m2
22:28 23.4 °F /  -4.8 °C 20.9 °F /  -6.2 °C 30.31in /  1026.3hPa SSE 5.8mph /  9.3km/h 8.1mph /  13km/h 90% 0.00in /  0mm 0.00 W/m2
22:33 24.1 °F /  -4.4 °C 21.9 °F /  -5.6 °C 30.32in /  1026.6hPa SSE 4.6mph /  7.4km/h 5.8mph /  9.3km/h 91% 0.00in /  0mm 0.00 W/m2
22:38 24.5 °F /  -4.2 °C 22.2 °F /  -5.4 °C 30.32in /  1026.6hPa SSE 2.3mph /  3.7km/h 5.8mph /  9.3km/h 91% 0.00in /  0mm 0.00 W/m2
22:43 24.5 °F /  -4.2 °C 22.2 °F /  -5.4 °C 30.31in /  1026.3hPa South 3.4mph /  5.5km/h 5.8mph /  9.3km/h 91% 0.00in /  0mm 0.00 W/m2
22:48 24.7 °F /  -4.1 °C 22.5 °F /  -5.3 °C 30.31in /  1026.3hPa SSE 3.4mph /  5.5km/h 6.9mph /  11.1km/h 91% 0.00in /  0mm 0.00 W/m2
22:53 24.8 °F /  -4 °C 22.5 °F /  -5.3 °C 30.31in /  1026.3hPa South 4.6mph /  7.4km/h 4.6mph /  7.4km/h 91% 0.00in /  0mm 0.00 W/m2
22:58 25.3 °F /  -3.7 °C 23.0 °F /  -5 °C 30.31in /  1026.3hPa South 5.8mph /  9.3km/h 6.9mph /  11.1km/h 91% 0.00in /  0mm 0.00 W/m2
23:03 25.5 °F /  -3.6 °C 23.2 °F /  -4.9 °C 30.31in /  1026.3hPa South 4.6mph /  7.4km/h 6.9mph /  11.1km/h 91% 0.00in /  0mm 0.00 W/m2
23:08 25.8 °F /  -3.4 °C 23.5 °F /  -4.7 °C 30.31in /  1026.3hPa South 5.8mph /  9.3km/h 6.9mph /  11.1km/h 91% 0.00in /  0mm 0.00 W/m2
23:13 26.2 °F /  -3.2 °C 23.9 °F /  -4.5 °C 30.31in /  1026.3hPa South 8.1mph /  13km/h 8.1mph /  13km/h 91% 0.00in /  0mm 0.00 W/m2
23:19 26.5 °F /  -3.1 °C 24.5 °F /  -4.2 °C 30.30in /  1026hPa South 6.9mph /  11.1km/h 8.1mph /  13km/h 92% 0.00in /  0mm 0.00 W/m2
23:24 26.6 °F /  -3 °C 24.3 °F /  -4.3 °C 30.30in /  1026hPa SSW 2.3mph /  3.7km/h 8.1mph /  13km/h 91% 0.00in /  0mm 0.00 W/m2
23:29 27.0 °F /  -2.8 °C 25.0 °F /  -3.9 °C 30.30in /  1026hPa South 3.4mph /  5.5km/h 6.9mph /  11.1km/h 92% 0.00in /  0mm 0.00 W/m2
23:34 27.0 °F /  -2.8 °C 24.7 °F /  -4.1 °C 30.30in /  1026hPa South 3.4mph /  5.5km/h 6.9mph /  11.1km/h 91% 0.00in /  0mm 0.00 W/m2
23:39 27.1 °F /  -2.7 °C 24.8 °F /  -4 °C 30.30in /  1026hPa South 3.4mph /  5.5km/h 8.1mph /  13km/h 91% 0.00in /  0mm 0.00 W/m2
23:44 27.3 °F /  -2.6 °C 25.0 °F /  -3.9 °C 30.30in /  1026hPa South 8.1mph /  13km/h 8.1mph /  13km/h 91% 0.00in /  0mm 0.00 W/m2
23:49 27.4 °F /  -2.6 °C 25.1 °F /  -3.8 °C 30.29in /  1025.6hPa South 8.1mph /  13km/h 9.2mph /  14.8km/h 91% 0.00in /  0mm 0.00 W/m2
23:54 27.8 °F /  -2.3 °C 25.8 °F /  -3.4 °C 30.30in /  1026hPa South 2.3mph /  3.7km/h 8.1mph /  13km/h 92% 0.00in /  0mm 0.00 W/m2
23:59 27.9 °F /  -2.3 °C 25.6 °F /  -3.6 °C 30.30in /  1026hPa South 5.8mph /  9.3km/h 6.9mph /  11.1km/h 91% 0.00in /  0mm 0.00 W/m2
peotoneweather.com
Compliments of Weather Underground - 3.75 mb